Terminal Aerodrome Forecast
Issued by NWS Knoxville/Tri Cities, TN

Home | Current Version | Previous Version | Text Only | Print | Product List | Glossary On
Versions: 1 2 3 4 5 6 7 8 9 10 11 12 13 14 15 16 17 18 19 20 21 22 23 24 25 26 27 28 29 30 31 32 33 34 35 36 37 38 39 40 41 42 43 44
000
FTUS44 KMRX 161124
TAFTRI
TAF
KTRI 161124Z 1612/1712 00000KT P6SM SCT005 OVC012
      TEMPO 1612/1614 5SM BR OVC006
     FM161600 28006KT P6SM SCT035 BKN070
     FM162200 30007KT P6SM SCT050 BKN150
     FM170100 00000KT P6SM SCT150
     FM170700 00000KT 3SM BR SCT005 BKN015=

USA.gov is the U.S. government's official web portal to all federal, state and local government web resources and services.